Time;durP1;ratioP1;P1;durP2;ratioP2;P2;SDS_P1;SDS_P2;PMS_P1;PMS_P2;Temp;Humidity;BMP_temperature;BMP_pressure;BME280_temperature;BME280_humidity;BME280_pressure;Samples;Min_cycle;Max_cycle;Signal;HPM_P1;HPM_P2
2022/11/22 00:02:02;;;;;;;;;;;0.30;99.90;;;;;;5053787;28;19952;-70
2022/11/22 00:04:27;;;;;;;;;;;0.30;99.90;;;;;;5053347;28;19963;-70
2022/11/22 00:06:53;;;;;;;;;;;0.30;99.90;;;;;;5053692;28;19913;-70
2022/11/22 00:09:18;;;;;;;;;;;0.30;99.90;;;;;;5053353;28;19913;-70
2022/11/22 00:11:44;;;;;;;;;;;0.30;99.90;;;;;;5053653;28;19912;-70
2022/11/22 00:14:10;;;;;;;;;;;0.30;99.90;;;;;;5053412;28;20016;-70
2022/11/22 00:16:35;;;;;;;;;;;0.30;99.90;;;;;;5053315;28;19913;-70
2022/11/22 00:19:01;;;;;;;;;;;0.30;99.90;;;;;;5053291;28;19917;-70
2022/11/22 00:21:27;;;;;;;;;;;0.30;99.90;;;;;;5053316;28;19920;-70
2022/11/22 00:23:56;;;;;;;;;;;0.20;99.90;;;;;;5053231;28;19920;-70
2022/11/22 00:26:22;;;;;;;;;;;0.10;99.90;;;;;;5052664;28;19917;-70
2022/11/22 00:28:48;;;;;;;;;;;0.10;99.90;;;;;;5053166;28;19917;-70
2022/11/22 00:31:13;;;;;;;;;;;0.10;99.90;;;;;;5051898;28;19920;-70
2022/11/22 00:33:39;;;;;;;;;;;0.10;99.90;;;;;;5053194;28;19919;-70
2022/11/22 00:36:04;;;;;;;;;;;0.10;99.90;;;;;;5053391;28;19919;-70
2022/11/22 00:38:30;;;;;;;;;;;0.10;99.90;;;;;;5052169;28;20018;-70
2022/11/22 00:40:56;;;;;;;;;;;0.10;99.90;;;;;;5053440;28;20387;-70
2022/11/22 00:43:21;;;;;;;;;;;0.10;99.90;;;;;;5053078;28;20453;-70
2022/11/22 00:45:47;;;;;;;;;;;0.10;99.90;;;;;;5051702;28;20304;-70
2022/11/22 00:48:12;;;;;;;;;;;0.10;99.90;;;;;;5055187;28;19959;-70
2022/11/22 00:50:38;;;;;;;;;;;0.20;99.90;;;;;;5056916;28;20003;-70
2022/11/22 00:53:03;;;;;;;;;;;0.20;99.90;;;;;;5056794;28;19924;-70
2022/11/22 00:55:29;;;;;;;;;;;0.20;99.90;;;;;;5055473;28;20337;-70
2022/11/22 00:57:54;;;;;;;;;;;0.20;99.90;;;;;;5056997;28;19920;-70
2022/11/22 01:00:20;;;;;;;;;;;0.20;99.90;;;;;;5055430;28;20007;-70
2022/11/22 01:02:45;;;;;;;;;;;0.30;99.90;;;;;;5055407;28;19912;-70
2022/11/22 01:05:11;;;;;;;;;;;0.30;99.90;;;;;;5056570;28;19920;-70
2022/11/22 01:07:36;;;;;;;;;;;0.30;99.90;;;;;;5056558;28;19913;-70
2022/11/22 01:10:02;;;;;;;;;;;0.30;99.90;;;;;;5056514;28;19913;-70
2022/11/22 01:12:28;;;;;;;;;;;0.30;99.90;;;;;;5056774;28;20000;-70
2022/11/22 01:14:54;;;;;;;;;;;0.30;99.90;;;;;;5056450;28;19913;-70
2022/11/22 01:17:19;;;;;;;;;;;0.30;99.90;;;;;;5055117;28;19970;-70
2022/11/22 01:19:45;;;;;;;;;;;0.30;99.90;;;;;;5056404;28;20352;-70
2022/11/22 01:22:10;;;;;;;;;;;0.30;99.90;;;;;;5056597;28;20276;-70
2022/11/22 01:24:36;;;;;;;;;;;0.40;99.90;;;;;;5056222;28;19913;-70
2022/11/22 01:27:01;;;;;;;;;;;0.40;99.90;;;;;;5056457;28;20364;-70
2022/11/22 01:29:27;;;;;;;;;;;0.40;99.90;;;;;;5056429;28;19920;-70
2022/11/22 01:31:52;;;;;;;;;;;0.50;99.90;;;;;;5056103;28;19919;-70
2022/11/22 01:34:18;;;;;;;;;;;0.40;99.90;;;;;;5056079;28;19915;-70
2022/11/22 01:36:43;;;;;;;;;;;0.50;99.90;;;;;;5056333;28;20467;-70
2022/11/22 01:39:09;;;;;;;;;;;0.40;99.90;;;;;;5055885;28;19913;-70
2022/11/22 01:41:35;;;;;;;;;;;0.40;99.90;;;;;;5055959;28;19913;-70
2022/11/22 01:44:20;;;;;;;;;;;0.40;99.90;;;;;;5054512;28;19912;-70
2022/11/22 01:46:48;;;;;;;;;;;0.40;99.90;;;;;;5055899;28;19931;-70
2022/11/22 01:49:21;;;;;;;;;;;0.30;99.90;;;;;;5054439;28;20004;-70
2022/11/22 01:51:48;;;;;;;;;;;0.30;99.90;;;;;;5054050;28;19923;-70
2022/11/22 01:54:16;;;;;;;;;;;0.30;99.90;;;;;;5054910;28;19909;-70
2022/11/22 01:56:43;;;;;;;;;;;0.30;99.90;;;;;;5054886;28;19920;-70
2022/11/22 01:59:11;;;;;;;;;;;0.30;99.90;;;;;;5054793;28;19966;-70
2022/11/22 02:01:36;;;;;;;;;;;0.30;99.90;;;;;;5054520;28;20273;-70
2022/11/22 02:04:03;;;;;;;;;;;0.30;99.90;;;;;;5054755;28;19999;-70
2022/11/22 02:06:45;;;;;;;;;;;0.30;99.90;;;;;;5054749;28;19908;-70
2022/11/22 02:09:11;;;;;;;;;;;0.40;99.90;;;;;;5053100;28;20381;-70
2022/11/22 02:11:38;;;;;;;;;;;0.40;99.90;;;;;;5054881;28;19920;-70
2022/11/22 02:14:05;;;;;;;;;;;0.40;99.90;;;;;;5053045;28;19909;-70
2022/11/22 02:16:33;;;;;;;;;;;0.40;99.90;;;;;;5054564;28;20381;-70
2022/11/22 02:18:58;;;;;;;;;;;0.50;99.90;;;;;;5054234;28;19944;-70
2022/11/22 02:21:24;;;;;;;;;;;0.50;99.90;;;;;;5054170;28;19967;-70
2022/11/22 02:23:54;;;;;;;;;;;0.50;99.90;;;;;;5054402;28;19963;-70
2022/11/22 02:26:20;;;;;;;;;;;0.40;99.90;;;;;;5054622;28;19959;-70
2022/11/22 02:28:45;;;;;;;;;;;0.40;99.90;;;;;;5054084;28;20319;-70
2022/11/22 02:31:29;;;;;;;;;;;0.40;99.90;;;;;;5054136;28;19913;-70
2022/11/22 02:33:55;;;;;;;;;;;0.50;99.90;;;;;;5053983;28;19909;-70
2022/11/22 02:36:20;;;;;;;;;;;0.50;99.90;;;;;;5053955;28;19916;-70
2022/11/22 02:38:46;;;;;;;;;;;0.50;99.90;;;;;;5054166;28;19975;-70
2022/11/22 02:41:11;;;;;;;;;;;0.60;99.90;;;;;;5053942;28;20019;-70
2022/11/22 02:43:39;;;;;;;;;;;0.60;99.90;;;;;;5052644;28;19913;-70
2022/11/22 02:46:05;;;;;;;;;;;0.60;99.90;;;;;;5053360;28;20267;-70
2022/11/22 02:48:31;;;;;;;;;;;0.60;99.90;;;;;;5053777;28;19913;-70
2022/11/22 02:50:56;;;;;;;;;;;0.70;99.90;;;;;;5053985;28;20374;-70
2022/11/22 02:53:22;;;;;;;;;;;0.70;99.90;;;;;;4984248;28;1971563;-70
2022/11/22 02:55:47;;;;;;;;;;;0.70;99.90;;;;;;5054533;28;19913;-70
2022/11/22 02:58:13;;;;;;;;;;;0.70;99.90;;;;;;5054798;28;20016;-70
2022/11/22 03:00:39;;;;;;;;;;;0.70;99.90;;;;;;5054407;28;19960;-70
2022/11/22 03:03:04;;;;;;;;;;;0.70;99.90;;;;;;5054400;28;19920;-70
2022/11/22 03:05:30;;;;;;;;;;;0.70;99.90;;;;;;5054356;28;19939;-70
2022/11/22 03:07:56;;;;;;;;;;;0.80;99.90;;;;;;5054238;28;20373;-70
2022/11/22 03:10:21;;;;;;;;;;;0.80;99.90;;;;;;5054060;28;19977;-70
2022/11/22 03:12:47;;;;;;;;;;;0.80;99.90;;;;;;5054277;28;19913;-70
2022/11/22 03:15:12;;;;;;;;;;;0.80;99.90;;;;;;5052966;28;19960;-70
2022/11/22 03:17:38;;;;;;;;;;;0.80;99.90;;;;;;5054047;28;19920;-70
2022/11/22 03:20:03;;;;;;;;;;;0.80;99.90;;;;;;5054062;28;20273;-70
2022/11/22 03:22:29;;;;;;;;;;;0.80;99.90;;;;;;5053969;28;20276;-70
2022/11/22 03:24:54;;;;;;;;;;;0.80;99.90;;;;;;5053912;28;19929;-70
2022/11/22 03:27:20;;;;;;;;;;;0.80;99.90;;;;;;5054431;28;19916;-70
2022/11/22 03:29:46;;;;;;;;;;;0.70;99.90;;;;;;5054170;28;20000;-70
2022/11/22 03:32:11;;;;;;;;;;;0.70;99.90;;;;;;5054447;28;19913;-70
2022/11/22 03:34:37;;;;;;;;;;;0.70;99.90;;;;;;5054125;28;19917;-70
2022/11/22 03:37:02;;;;;;;;;;;0.70;99.90;;;;;;5053755;28;19948;-70
2022/11/22 03:39:28;;;;;;;;;;;0.70;99.90;;;;;;5053784;28;19913;-70
2022/11/22 03:41:55;;;;;;;;;;;0.70;99.90;;;;;;5054056;28;19916;-70
2022/11/22 03:44:21;;;;;;;;;;;0.80;99.90;;;;;;5053617;28;20015;-70
2022/11/22 03:46:46;;;;;;;;;;;0.80;99.90;;;;;;5053968;28;19920;-70
2022/11/22 03:49:12;;;;;;;;;;;0.80;99.90;;;;;;5053564;28;19913;-70
2022/11/22 03:51:37;;;;;;;;;;;0.80;99.90;;;;;;5053499;28;19917;-70
2022/11/22 03:54:03;;;;;;;;;;;0.80;99.90;;;;;;5053796;28;19960;-70
2022/11/22 03:56:29;;;;;;;;;;;0.80;99.90;;;;;;5052279;28;19962;-70
2022/11/22 03:58:54;;;;;;;;;;;0.80;99.90;;;;;;5052171;28;19962;-70
2022/11/22 04:01:20;;;;;;;;;;;0.80;99.90;;;;;;5052628;28;19917;-70
2022/11/22 04:03:45;;;;;;;;;;;0.80;99.90;;;;;;5053500;28;19909;-70
2022/11/22 04:06:11;;;;;;;;;;;0.90;99.90;;;;;;5051390;28;20427;-70
2022/11/22 04:08:37;;;;;;;;;;;0.90;99.90;;;;;;5048763;28;19963;-70
2022/11/22 04:11:02;;;;;;;;;;;0.90;99.90;;;;;;5051704;28;19916;-70
2022/11/22 04:16:12;;;;;;;;;;;0.90;99.90;;;;;;5053342;28;19927;-70
2022/11/22 04:18:37;;;;;;;;;;;0.90;99.90;;;;;;5051918;28;19999;-70
2022/11/22 04:25:12;;;;;;;;;;;0.90;99.90;;;;;;5055758;28;19919;-70
2022/11/22 04:26:33;;;;;;;;;;;0.80;99.90;;;;;;5057049;28;19916;-70
2022/11/22 04:28:58;;;;;;;;;;;0.90;99.90;;;;;;5056964;28;19917;-70
2022/11/22 04:34:08;;;;;;;;;;;0.90;99.90;;;;;;5057353;28;19973;-70
2022/11/22 04:36:33;;;;;;;;;;;0.90;99.90;;;;;;5057068;28;20381;-70
2022/11/22 04:38:59;;;;;;;;;;;0.80;99.90;;;;;;5056919;28;19966;-70
2022/11/22 04:41:24;;;;;;;;;;;0.80;99.90;;;;;;5056982;28;19913;-70
2022/11/22 04:46:34;;;;;;;;;;;0.70;99.90;;;;;;5056892;28;20418;-70
2022/11/22 04:48:59;;;;;;;;;;;0.70;99.90;;;;;;5055540;28;19913;-70
2022/11/22 04:54:09;;;;;;;;;;;0.60;99.90;;;;;;5057044;28;20368;-70
2022/11/22 04:56:35;;;;;;;;;;;0.70;99.90;;;;;;5056698;28;19908;-70
2022/11/22 04:59:00;;;;;;;;;;;0.70;99.90;;;;;;5056553;28;19984;-70
2022/11/22 05:01:26;;;;;;;;;;;0.70;99.90;;;;;;5056300;28;19913;-70
2022/11/22 05:03:51;;;;;;;;;;;0.80;99.90;;;;;;5056458;28;19923;-70
2022/11/22 05:06:17;;;;;;;;;;;0.80;99.90;;;;;;5056351;28;20003;-69
2022/11/22 05:08:43;;;;;;;;;;;0.80;99.90;;;;;;5055040;28;19912;-69
2022/11/22 05:11:08;;;;;;;;;;;0.80;99.90;;;;;;5056465;28;19908;-70
2022/11/22 05:13:38;;;;;;;;;;;0.90;99.90;;;;;;5056311;28;19970;-69
2022/11/22 05:16:04;;;;;;;;;;;0.90;99.90;;;;;;5055997;28;19909;-70
2022/11/22 05:18:30;;;;;;;;;;;0.90;99.90;;;;;;5056207;28;19987;-70
2022/11/22 05:20:56;;;;;;;;;;;0.90;99.90;;;;;;5056179;28;19921;-70
2022/11/22 05:26:07;;;;;;;;;;;0.90;99.90;;;;;;5054185;28;19919;-69
2022/11/22 05:28:34;;;;;;;;;;;1.00;99.90;;;;;;5054109;28;19917;-70
2022/11/22 05:31:06;;;;;;;;;;;1.00;99.90;;;;;;5054184;28;20408;-70
2022/11/22 05:33:34;;;;;;;;;;;1.00;99.90;;;;;;5055283;28;20296;-70
2022/11/22 05:35:59;;;;;;;;;;;1.00;99.90;;;;;;5056105;28;19908;-70
2022/11/22 05:38:25;;;;;;;;;;;1.00;99.90;;;;;;5054639;28;20418;-69
2022/11/22 05:40:54;;;;;;;;;;;1.00;99.90;;;;;;5056309;28;19920;-70
2022/11/22 05:43:19;;;;;;;;;;;1.00;99.90;;;;;;5055911;28;19909;-72
2022/11/22 05:45:45;;;;;;;;;;;1.00;99.90;;;;;;5055797;28;19923;-71
2022/11/22 05:48:10;;;;;;;;;;;1.00;99.90;;;;;;5055907;28;20012;-71
2022/11/22 05:50:36;;;;;;;;;;;1.10;99.90;;;;;;5054565;28;19967;-72
2022/11/22 05:53:02;;;;;;;;;;;1.00;99.90;;;;;;5055688;28;19924;-71
2022/11/22 05:55:28;;;;;;;;;;;1.00;99.90;;;;;;5054434;28;19913;-71
2022/11/22 05:57:54;;;;;;;;;;;1.10;99.90;;;;;;5055775;28;20331;-71
2022/11/22 06:00:19;;;;;;;;;;;1.00;99.90;;;;;;5055652;28;19909;-71
2022/11/22 06:02:45;;;;;;;;;;;1.00;99.90;;;;;;5055559;28;19912;-71
2022/11/22 06:05:10;;;;;;;;;;;1.00;99.90;;;;;;5055454;28;19916;-71
2022/11/22 06:07:36;;;;;;;;;;;1.00;99.90;;;;;;5055417;28;19913;-71
2022/11/22 06:10:01;;;;;;;;;;;1.00;99.90;;;;;;5055396;28;19935;-71
2022/11/22 06:12:27;;;;;;;;;;;1.00;99.90;;;;;;5055388;28;20004;-71
2022/11/22 06:14:52;;;;;;;;;;;1.00;99.90;;;;;;5055360;28;19993;-71
2022/11/22 06:17:18;;;;;;;;;;;0.90;99.90;;;;;;5053992;28;20325;-71
2022/11/22 06:19:43;;;;;;;;;;;0.90;99.90;;;;;;5055233;28;20308;-71
2022/11/22 06:22:09;;;;;;;;;;;0.90;99.90;;;;;;5055256;28;20257;-71
2022/11/22 06:24:35;;;;;;;;;;;1.00;99.90;;;;;;5055103;28;19916;-71
2022/11/22 06:27:00;;;;;;;;;;;1.00;99.90;;;;;;5055064;28;19944;-71
2022/11/22 06:29:26;;;;;;;;;;;1.00;99.90;;;;;;5055058;28;19913;-71
2022/11/22 06:31:51;;;;;;;;;;;1.00;99.90;;;;;;5055124;28;19913;-71
2022/11/22 06:34:17;;;;;;;;;;;1.00;99.90;;;;;;5055018;28;19913;-71
2022/11/22 06:36:42;;;;;;;;;;;1.00;99.90;;;;;;5054016;28;19919;-71
2022/11/22 06:39:08;;;;;;;;;;;1.00;99.90;;;;;;5055853;28;19914;-71
2022/11/22 06:41:34;;;;;;;;;;;1.00;99.90;;;;;;5055110;28;19909;-71
2022/11/22 06:44:03;;;;;;;;;;;1.00;99.90;;;;;;5053460;28;20322;-71
2022/11/22 06:46:28;;;;;;;;;;;1.00;99.90;;;;;;5054278;28;19909;-71
2022/11/22 06:48:54;;;;;;;;;;;1.00;99.90;;;;;;5054666;28;19913;-71
2022/11/22 06:51:20;;;;;;;;;;;1.00;99.90;;;;;;5054605;28;19916;-71
2022/11/22 06:53:47;;;;;;;;;;;1.00;99.90;;;;;;5055186;28;19936;-71
2022/11/22 06:56:14;;;;;;;;;;;1.00;99.90;;;;;;5054564;28;19920;-71
2022/11/22 06:58:40;;;;;;;;;;;1.00;99.90;;;;;;5054353;28;19909;-71
2022/11/22 07:01:07;;;;;;;;;;;1.00;99.90;;;;;;5054513;28;19909;-71
2022/11/22 07:03:33;;;;;;;;;;;1.00;99.90;;;;;;5054443;28;19965;-71
2022/11/22 07:05:59;;;;;;;;;;;1.00;99.90;;;;;;5054328;28;20015;-71
2022/11/22 07:08:24;;;;;;;;;;;1.00;99.90;;;;;;5054369;28;19913;-71
2022/11/22 07:10:50;;;;;;;;;;;1.00;99.90;;;;;;5054356;28;19927;-71
2022/11/22 07:13:15;;;;;;;;;;;1.00;99.90;;;;;;5054252;28;19909;-71
2022/11/22 07:15:43;;;;;;;;;;;1.00;99.90;;;;;;5054492;28;20365;-71
2022/11/22 07:18:09;;;;;;;;;;;1.00;99.90;;;;;;5054086;28;19919;-71
2022/11/22 07:20:34;;;;;;;;;;;1.00;99.90;;;;;;5055004;28;19999;-71
2022/11/22 07:23:00;;;;;;;;;;;1.00;99.90;;;;;;5055207;28;19916;-71
2022/11/22 07:25:25;;;;;;;;;;;1.00;99.90;;;;;;5052820;28;19923;-71
2022/11/22 07:27:51;;;;;;;;;;;1.00;99.90;;;;;;5054195;28;19913;-71
2022/11/22 07:30:17;;;;;;;;;;;1.00;99.90;;;;;;5054297;28;19959;-71
2022/11/22 07:32:46;;;;;;;;;;;1.00;99.90;;;;;;5052602;28;19980;-71
2022/11/22 07:35:11;;;;;;;;;;;1.00;99.90;;;;;;5053905;28;19909;-71
2022/11/22 07:37:37;;;;;;;;;;;1.00;99.90;;;;;;5053817;28;20070;-71
2022/11/22 07:40:03;;;;;;;;;;;1.00;99.90;;;;;;5054074;28;19980;-71
2022/11/22 07:42:28;;;;;;;;;;;1.10;99.90;;;;;;5053781;28;19913;-71
2022/11/22 07:44:54;;;;;;;;;;;1.10;99.90;;;;;;5053636;28;20015;-71
2022/11/22 07:47:19;;;;;;;;;;;1.00;99.90;;;;;;5053646;28;19943;-71
2022/11/22 07:49:45;;;;;;;;;;;1.10;99.90;;;;;;5035786;28;19913;-71
2022/11/22 07:52:10;;;;;;;;;;;1.10;99.90;;;;;;5052241;28;19927;-71
2022/11/22 07:54:36;;;;;;;;;;;1.10;99.90;;;;;;5053889;28;19916;-71
2022/11/22 07:57:01;;;;;;;;;;;1.10;99.90;;;;;;5053355;28;19913;-71
2022/11/22 07:59:27;;;;;;;;;;;1.10;99.90;;;;;;5053582;28;19955;-72
2022/11/22 08:01:52;;;;;;;;;;;1.10;99.90;;;;;;5053839;28;20023;-72
2022/11/22 08:04:18;;;;;;;;;;;1.10;99.90;;;;;;5053466;28;19913;-72
2022/11/22 08:06:44;;;;;;;;;;;1.20;99.90;;;;;;5053491;28;19919;-71
2022/11/22 08:09:10;;;;;;;;;;;1.20;99.90;;;;;;5053711;28;19912;-72
2022/11/22 08:11:35;;;;;;;;;;;1.20;99.90;;;;;;5053415;28;20369;-72
2022/11/22 08:14:01;;;;;;;;;;;1.20;99.90;;;;;;5053411;28;19916;-72
2022/11/22 08:16:27;;;;;;;;;;;1.20;99.90;;;;;;5053659;28;19978;-72
2022/11/22 08:18:52;;;;;;;;;;;1.20;99.90;;;;;;5053287;28;19942;-72
2022/11/22 08:21:18;;;;;;;;;;;1.20;99.90;;;;;;5053315;28;19909;-72
2022/11/22 08:23:45;;;;;;;;;;;1.20;99.90;;;;;;5053355;28;19917;-73
2022/11/22 08:26:12;;;;;;;;;;;1.20;99.90;;;;;;5053237;28;19920;-73
2022/11/22 08:28:37;;;;;;;;;;;1.20;99.90;;;;;;5053293;28;19909;-72
2022/11/22 08:31:21;;;;;;;;;;;1.20;99.90;;;;;;5053273;28;20307;-73
2022/11/22 08:33:47;;;;;;;;;;;1.20;99.90;;;;;;5053220;28;19912;-73
2022/11/22 08:36:12;;;;;;;;;;;1.20;99.90;;;;;;5051974;28;19986;-73
2022/11/22 08:38:38;;;;;;;;;;;1.20;99.90;;;;;;5053125;28;19954;-74
2022/11/22 08:41:07;;;;;;;;;;;1.20;99.90;;;;;;5053195;28;19939;-74
2022/11/22 08:43:32;;;;;;;;;;;1.20;99.90;;;;;;5053709;28;19912;-74
2022/11/22 08:45:58;;;;;;;;;;;1.20;99.90;;;;;;5053118;28;19917;-74
2022/11/22 08:48:24;;;;;;;;;;;1.20;99.90;;;;;;5053141;28;19913;-75
2022/11/22 08:50:57;;;;;;;;;;;1.20;99.90;;;;;;5053156;28;19968;-75
2022/11/22 08:53:23;;;;;;;;;;;1.20;99.90;;;;;;5052956;28;19920;-75
2022/11/22 08:55:49;;;;;;;;;;;1.20;99.90;;;;;;5053329;28;19909;-75
2022/11/22 08:58:14;;;;;;;;;;;1.20;99.90;;;;;;5052985;28;19909;-74
2022/11/22 09:00:40;;;;;;;;;;;1.20;99.90;;;;;;5052974;28;19916;-74
2022/11/22 09:03:06;;;;;;;;;;;1.20;99.90;;;;;;5053838;28;20003;-75
2022/11/22 09:05:31;;;;;;;;;;;1.30;99.90;;;;;;5052923;28;19924;-75
2022/11/22 09:07:57;;;;;;;;;;;1.30;99.90;;;;;;5053336;28;19913;-75
2022/11/22 09:10:23;;;;;;;;;;;1.30;99.90;;;;;;5056792;28;19913;-75
2022/11/22 09:12:49;;;;;;;;;;;1.30;99.90;;;;;;5056790;28;19919;-75
2022/11/22 09:15:14;;;;;;;;;;;1.30;99.90;;;;;;5056483;28;19909;-75
2022/11/22 09:17:40;;;;;;;;;;;1.30;99.90;;;;;;5056622;28;20003;-74
2022/11/22 09:20:06;;;;;;;;;;;1.30;99.90;;;;;;5056690;28;19933;-74
2022/11/22 09:22:32;;;;;;;;;;;1.40;99.90;;;;;;5056410;28;19912;-74
2022/11/22 09:24:57;;;;;;;;;;;1.40;99.90;;;;;;5056269;28;19983;-74
2022/11/22 09:27:23;;;;;;;;;;;1.40;99.90;;;;;;5056265;28;19913;-73
2022/11/22 09:29:49;;;;;;;;;;;1.40;99.90;;;;;;5056268;28;20487;-73
2022/11/22 09:32:14;;;;;;;;;;;1.40;99.90;;;;;;5054985;28;20331;-73
2022/11/22 09:34:40;;;;;;;;;;;1.40;99.90;;;;;;5056147;28;19919;-73
2022/11/22 09:37:05;;;;;;;;;;;1.40;99.90;;;;;;5056083;28;19978;-73
2022/11/22 09:39:31;;;;;;;;;;;1.40;99.90;;;;;;5054738;28;19999;-73
2022/11/22 09:42:03;;;;;;;;;;;1.40;99.90;;;;;;5056028;28;20407;-73
2022/11/22 09:44:41;;;;;;;;;;;1.40;99.90;;;;;;5056144;28;19913;-73
2022/11/22 09:47:22;;;;;;;;;;;1.30;99.90;;;;;;5055822;28;19935;-73
2022/11/22 09:50:06;;;;;;;;;;;1.30;99.90;;;;;;5055850;28;19909;-72
2022/11/22 09:52:47;;;;;;;;;;;1.30;99.90;;;;;;5055722;28;20018;-72
2022/11/22 09:55:18;;;;;;;;;;;1.30;99.90;;;;;;5055739;28;19913;-72
2022/11/22 09:57:48;;;;;;;;;;;1.30;99.90;;;;;;5055675;28;19909;-72
2022/11/22 10:00:24;;;;;;;;;;;1.30;99.90;;;;;;5055920;28;19916;-71
2022/11/22 10:02:58;;;;;;;;;;;1.30;99.90;;;;;;5055614;28;20364;-72
2022/11/22 10:05:27;;;;;;;;;;;1.30;99.90;;;;;;5055820;28;19920;-72
2022/11/22 10:08:01;;;;;;;;;;;1.30;99.90;;;;;;5055969;28;19913;-72
2022/11/22 10:10:31;;;;;;;;;;;1.30;99.90;;;;;;5055506;28;19960;-72
2022/11/22 10:12:59;;;;;;;;;;;1.30;99.90;;;;;;5055700;28;20008;-72
2022/11/22 10:15:31;;;;;;;;;;;1.30;99.90;;;;;;5055385;28;19917;-72
2022/11/22 10:17:56;;;;;;;;;;;1.40;99.90;;;;;;5055279;28;20439;-72
2022/11/22 10:20:26;;;;;;;;;;;1.30;99.90;;;;;;5054102;28;19966;-72
2022/11/22 10:22:52;;;;;;;;;;;1.40;99.90;;;;;;5055242;28;20365;-72
2022/11/22 10:25:19;;;;;;;;;;;1.40;99.90;;;;;;5055712;28;19966;-72
2022/11/22 10:28:08;;;;;;;;;;;1.40;99.90;;;;;;5055646;28;20296;-72
2022/11/22 10:30:37;;;;;;;;;;;1.40;99.90;;;;;;5044324;28;20369;-72
2022/11/22 10:33:14;;;;;;;;;;;1.40;99.90;;;;;;5055036;28;20365;-72
2022/11/22 10:35:48;;;;;;;;;;;1.40;99.90;;;;;;5055105;28;19940;-72
2022/11/22 10:38:25;;;;;;;;;;;1.40;99.90;;;;;;5055083;28;19915;-72
2022/11/22 10:41:10;;;;;;;;;;;1.40;99.90;;;;;;5055476;28;19916;-72
2022/11/22 10:43:36;;;;;;;;;;;1.40;99.90;;;;;;5055390;28;19913;-72
2022/11/22 10:46:11;;;;;;;;;;;1.50;99.90;;;;;;5054695;28;19913;-72
2022/11/22 10:48:48;;;;;;;;;;;1.50;99.90;;;;;;5053449;28;19952;-72
2022/11/22 10:51:22;;;;;;;;;;;1.50;99.90;;;;;;5054628;28;20426;-72
2022/11/22 10:53:51;;;;;;;;;;;1.50;99.90;;;;;;5055222;28;19913;-72
2022/11/22 10:56:17;;;;;;;;;;;1.60;99.90;;;;;;5054618;28;19909;-72
2022/11/22 10:58:42;;;;;;;;;;;1.50;99.90;;;;;;5053205;28;19913;-72
2022/11/22 11:01:14;;;;;;;;;;;1.50;99.90;;;;;;5054471;28;19909;-72
2022/11/22 11:03:41;;;;;;;;;;;1.50;99.90;;;;;;5054442;28;19908;-72
2022/11/22 11:06:13;;;;;;;;;;;1.50;99.90;;;;;;5054320;28;19912;-72
2022/11/22 11:08:51;;;;;;;;;;;1.50;99.90;;;;;;5052991;28;20307;-72
2022/11/22 11:11:17;;;;;;;;;;;1.50;99.90;;;;;;5054312;28;19923;-72
2022/11/22 11:13:45;;;;;;;;;;;1.50;99.90;;;;;;5054288;28;19921;-72
2022/11/22 11:16:14;;;;;;;;;;;1.60;99.90;;;;;;5054511;28;20420;-72
2022/11/22 11:18:42;;;;;;;;;;;1.60;99.90;;;;;;5054040;28;20339;-72
2022/11/22 11:21:11;;;;;;;;;;;1.60;99.90;;;;;;5054382;28;19909;-72
2022/11/22 11:23:37;;;;;;;;;;;1.60;99.90;;;;;;5054664;28;20359;-72
2022/11/22 11:26:23;;;;;;;;;;;1.60;99.90;;;;;;5053989;28;19920;-72
2022/11/22 11:28:48;;;;;;;;;;;1.70;99.90;;;;;;5052055;28;19955;-72
2022/11/22 11:31:17;;;;;;;;;;;1.70;99.90;;;;;;5053627;28;20285;-73
2022/11/22 11:33:43;;;;;;;;;;;1.70;99.90;;;;;;5054132;28;19912;-72
2022/11/22 11:36:19;;;;;;;;;;;1.70;99.90;;;;;;5053869;28;19958;-72
2022/11/22 11:38:45;;;;;;;;;;;1.70;99.90;;;;;;5052441;28;19939;-73
2022/11/22 11:41:19;;;;;;;;;;;1.60;99.90;;;;;;5054296;28;19901;-73
2022/11/22 11:43:45;;;;;;;;;;;1.60;99.90;;;;;;5053712;28;19909;-73
2022/11/22 11:46:14;;;;;;;;;;;1.60;99.90;;;;;;5053906;28;19920;-72
2022/11/22 11:48:41;;;;;;;;;;;1.60;99.90;;;;;;5053659;28;20012;-72
2022/11/22 11:51:07;;;;;;;;;;;1.60;99.90;;;;;;5052411;28;19916;-73
2022/11/22 11:53:33;;;;;;;;;;;1.60;99.90;;;;;;5053649;28;19930;-72
2022/11/22 11:56:17;;;;;;;;;;;1.60;99.90;;;;;;5053845;28;19917;-73
2022/11/22 11:58:48;;;;;;;;;;;1.60;99.90;;;;;;5053486;28;19913;-73
2022/11/22 12:01:16;;;;;;;;;;;1.70;99.90;;;;;;5053560;28;19909;-72
2022/11/22 12:03:48;;;;;;;;;;;1.70;99.90;;;;;;5053740;28;19909;-72
2022/11/22 12:06:14;;;;;;;;;;;1.70;99.90;;;;;;5053936;28;19912;-72
2022/11/22 12:08:40;;;;;;;;;;;1.80;99.90;;;;;;5053419;28;19999;-72
2022/11/22 12:11:08;;;;;;;;;;;1.70;99.90;;;;;;5053443;28;20257;-72
2022/11/22 12:13:39;;;;;;;;;;;1.70;99.90;;;;;;5054013;28;19994;-73
2022/11/22 12:16:08;;;;;;;;;;;1.70;99.90;;;;;;5053373;28;19913;-73
2022/11/22 12:18:33;;;;;;;;;;;1.70;99.90;;;;;;5053214;28;19913;-72
2022/11/22 12:21:12;;;;;;;;;;;1.70;99.90;;;;;;5053238;28;20356;-73
2022/11/22 12:23:44;;;;;;;;;;;1.70;99.90;;;;;;5052150;28;20355;-73
2022/11/22 12:26:10;;;;;;;;;;;1.70;99.90;;;;;;5053246;28;20000;-73
2022/11/22 12:28:37;;;;;;;;;;;1.80;99.90;;;;;;5053192;28;19944;-73
2022/11/22 12:31:15;;;;;;;;;;;1.80;99.90;;;;;;5053492;28;19912;-73
2022/11/22 12:33:50;;;;;;;;;;;1.80;99.90;;;;;;5053818;28;19997;-73
2022/11/22 12:36:36;;;;;;;;;;;1.80;99.90;;;;;;5053193;28;19992;-73
2022/11/22 12:39:03;;;;;;;;;;;1.80;99.90;;;;;;5052677;28;19908;-73
2022/11/22 12:41:30;;;;;;;;;;;1.80;99.90;;;;;;5053524;28;19913;-73
2022/11/22 12:43:57;;;;;;;;;;;1.80;99.90;;;;;;5054690;28;19990;-73
2022/11/22 12:46:34;;;;;;;;;;;1.80;99.90;;;;;;5056954;28;20024;-72
2022/11/22 12:49:20;;;;;;;;;;;1.80;99.90;;;;;;5056996;28;20285;-72
2022/11/22 12:51:49;;;;;;;;;;;1.70;99.90;;;;;;5042580;28;19920;-72
2022/11/22 12:54:17;;;;;;;;;;;1.80;99.90;;;;;;5057187;28;19909;-72
2022/11/22 12:56:52;;;;;;;;;;;1.70;99.90;;;;;;5057164;28;19913;-72
2022/11/22 12:59:20;;;;;;;;;;;1.70;99.90;;;;;;5056772;28;19909;-73
2022/11/22 13:02:06;;;;;;;;;;;1.70;99.90;;;;;;5056846;28;20340;-72
2022/11/22 13:04:40;;;;;;;;;;;1.80;99.90;;;;;;5015761;28;19909;-72
2022/11/22 13:07:18;;;;;;;;;;;1.80;99.90;;;;;;5055646;28;20262;-72
2022/11/22 13:09:48;;;;;;;;;;;1.80;99.90;;;;;;5056948;28;20422;-72
2022/11/22 13:12:15;;;;;;;;;;;1.80;99.90;;;;;;5056629;28;19909;-72
2022/11/22 13:14:51;;;;;;;;;;;1.80;99.90;;;;;;5055341;28;19909;-72
2022/11/22 13:17:16;;;;;;;;;;;1.80;99.90;;;;;;5056760;28;19951;-72
2022/11/22 13:19:48;;;;;;;;;;;1.80;99.90;;;;;;5056403;28;20300;-72
2022/11/22 13:22:13;;;;;;;;;;;1.80;99.90;;;;;;5056419;28;20062;-72
2022/11/22 13:24:57;;;;;;;;;;;1.80;99.90;;;;;;5056502;28;20369;-72
2022/11/22 13:27:26;;;;;;;;;;;1.80;99.90;;;;;;5056526;28;19915;-72
2022/11/22 13:29:54;;;;;;;;;;;1.70;99.90;;;;;;5056246;28;19909;-72
2022/11/22 13:32:22;;;;;;;;;;;1.70;99.90;;;;;;5056556;28;19908;-72
2022/11/22 13:35:26;;;;;;;;;;;1.70;99.90;;;;;;5056420;28;19909;-72
2022/11/22 13:37:54;;;;;;;;;;;1.70;99.90;;;;;;4975504;28;19918;-72
2022/11/22 13:40:22;;;;;;;;;;;1.70;99.90;;;;;;4975521;28;19953;-73
2022/11/22 13:43:08;;;;;;;;;;;1.70;99.90;;;;;;5014960;28;19962;-73
2022/11/22 13:45:57;;;;;;;;;;;1.70;99.90;;;;;;5056116;28;19919;-73
2022/11/22 13:48:38;;;;;;;;;;;1.70;99.90;;;;;;5055871;28;20056;-73
2022/11/22 13:51:07;;;;;;;;;;;1.70;99.90;;;;;;5055760;28;20311;-73
2022/11/22 13:53:37;;;;;;;;;;;1.70;99.90;;;;;;5055819;28;19919;-73
2022/11/22 13:56:15;;;;;;;;;;;1.70;99.90;;;;;;5055478;28;19966;-72
2022/11/22 13:58:50;;;;;;;;;;;1.70;99.90;;;;;;5056251;28;19971;-73
2022/11/22 14:01:34;;;;;;;;;;;1.70;99.90;;;;;;5055703;28;20424;-73
2022/11/22 14:04:15;;;;;;;;;;;1.70;99.90;;;;;;5055660;28;19908;-73
2022/11/22 14:06:58;;;;;;;;;;;1.70;99.90;;;;;;5055519;28;19912;-73
2022/11/22 14:09:36;;;;;;;;;;;1.70;99.90;;;;;;5056055;28;19909;-73
2022/11/22 14:12:02;;;;;;;;;;;1.70;99.90;;;;;;5055513;28;19908;-73
2022/11/22 14:14:30;;;;;;;;;;;1.70;99.90;;;;;;5055738;28;20272;-74
2022/11/22 14:17:05;;;;;;;;;;;1.70;99.90;;;;;;5054144;28;19912;-73
2022/11/22 14:19:40;;;;;;;;;;;1.70;99.90;;;;;;5054037;28;19939;-73
2022/11/22 14:22:23;;;;;;;;;;;1.70;99.90;;;;;;5055252;28;19908;-73
2022/11/22 14:25:14;;;;;;;;;;;1.60;99.90;;;;;;5055431;28;19920;-72
2022/11/22 14:27:58;;;;;;;;;;;1.60;99.90;;;;;;5018913;28;19909;-72
2022/11/22 14:30:42;;;;;;;;;;;1.60;99.90;;;;;;5055083;28;20293;-72
2022/11/22 14:33:15;;;;;;;;;;;1.60;99.90;;;;;;5055361;28;19916;-72
2022/11/22 14:35:59;;;;;;;;;;;1.50;99.90;;;;;;5055248;28;19917;-72
2022/11/22 14:38:26;;;;;;;;;;;1.50;99.90;;;;;;5054929;28;19909;-72
2022/11/22 14:41:12;;;;;;;;;;;1.40;99.90;;;;;;5053968;28;20338;-72
2022/11/22 14:43:38;;;;;;;;;;;1.40;99.90;;;;;;5054734;28;20377;-72
2022/11/22 14:46:12;;;;;;;;;;;1.40;99.90;;;;;;5055022;28;19920;-72
2022/11/22 14:48:56;;;;;;;;;;;1.40;99.90;;;;;;5054853;28;19948;-72
2022/11/22 14:51:32;;;;;;;;;;;1.50;99.90;;;;;;5054881;28;19929;-72
2022/11/22 14:53:59;;;;;;;;;;;1.40;99.90;;;;;;5054966;28;19940;-72
2022/11/22 14:56:32;;;;;;;;;;;1.40;99.90;;;;;;5054916;28;19915;-72